sensor_id;sensor_type;location;lat;lon;timestamp;temperature;humidity
27848;DHT22;15212;48.830;8.730;2023-02-23T00:02:04;7.80;99.90
27848;DHT22;15212;48.830;8.730;2023-02-23T00:04:34;7.80;99.90
27848;DHT22;15212;48.830;8.730;2023-02-23T00:07:04;7.80;99.90
27848;DHT22;15212;48.830;8.730;2023-02-23T00:09:33;7.80;99.90
27848;DHT22;15212;48.830;8.730;2023-02-23T00:12:03;7.80;99.90
27848;DHT22;15212;48.830;8.730;2023-02-23T00:14:36;7.80;99.90
27848;DHT22;15212;48.830;8.730;2023-02-23T00:17:05;7.70;99.90
27848;DHT22;15212;48.830;8.730;2023-02-23T00:19:39;7.70;99.90
27848;DHT22;15212;48.830;8.730;2023-02-23T00:22:08;7.70;99.90
27848;DHT22;15212;48.830;8.730;2023-02-23T00:24:38;7.70;99.90
27848;DHT22;15212;48.830;8.730;2023-02-23T00:27:07;7.70;99.90
27848;DHT22;15212;48.830;8.730;2023-02-23T00:29:36;7.70;99.90
27848;DHT22;15212;48.830;8.730;2023-02-23T00:32:06;7.70;99.90
27848;DHT22;15212;48.830;8.730;2023-02-23T00:34:35;7.70;99.90
27848;DHT22;15212;48.830;8.730;2023-02-23T00:37:03;7.70;99.90
27848;DHT22;15212;48.830;8.730;2023-02-23T00:39:33;7.70;99.90
27848;DHT22;15212;48.830;8.730;2023-02-23T00:42:02;7.70;99.90
27848;DHT22;15212;48.830;8.730;2023-02-23T00:44:32;7.70;99.90
27848;DHT22;15212;48.830;8.730;2023-02-23T00:47:01;7.70;99.90
27848;DHT22;15212;48.830;8.730;2023-02-23T00:49:29;7.70;99.90
27848;DHT22;15212;48.830;8.730;2023-02-23T00:51:58;7.70;99.90
27848;DHT22;15212;48.830;8.730;2023-02-23T00:54:27;7.70;99.90
27848;DHT22;15212;48.830;8.730;2023-02-23T00:56:55;7.70;99.90
27848;DHT22;15212;48.830;8.730;2023-02-23T00:59:23;7.70;99.90
27848;DHT22;15212;48.830;8.730;2023-02-23T01:01:52;7.70;99.90
27848;DHT22;15212;48.830;8.730;2023-02-23T01:04:21;7.70;99.90
27848;DHT22;15212;48.830;8.730;2023-02-23T01:06:49;7.70;99.90
27848;DHT22;15212;48.830;8.730;2023-02-23T01:09:18;7.70;99.90
27848;DHT22;15212;48.830;8.730;2023-02-23T01:11:50;7.70;99.90
27848;DHT22;15212;48.830;8.730;2023-02-23T01:14:19;7.70;99.90
27848;DHT22;15212;48.830;8.730;2023-02-23T01:16:47;7.70;99.90
27848;DHT22;15212;48.830;8.730;2023-02-23T01:19:15;7.70;99.90
27848;DHT22;15212;48.830;8.730;2023-02-23T01:21:44;7.70;99.90
27848;DHT22;15212;48.830;8.730;2023-02-23T01:24:12;7.60;99.90
27848;DHT22;15212;48.830;8.730;2023-02-23T01:26:43;7.60;99.90
27848;DHT22;15212;48.830;8.730;2023-02-23T01:29:15;7.70;99.90
27848;DHT22;15212;48.830;8.730;2023-02-23T01:31:46;7.70;99.90
27848;DHT22;15212;48.830;8.730;2023-02-23T01:34:17;7.70;99.90
27848;DHT22;15212;48.830;8.730;2023-02-23T01:36:47;7.70;99.90
27848;DHT22;15212;48.830;8.730;2023-02-23T01:39:18;7.70;99.90
27848;DHT22;15212;48.830;8.730;2023-02-23T01:41:47;7.70;99.90
27848;DHT22;15212;48.830;8.730;2023-02-23T01:46:50;7.70;99.90
27848;DHT22;15212;48.830;8.730;2023-02-23T01:49:24;7.70;99.90
27848;DHT22;15212;48.830;8.730;2023-02-23T01:51:56;7.70;99.90
27848;DHT22;15212;48.830;8.730;2023-02-23T01:54:31;7.80;99.90
27848;DHT22;15212;48.830;8.730;2023-02-23T01:57:04;7.70;99.90
27848;DHT22;15212;48.830;8.730;2023-02-23T01:59:40;7.70;99.90
27848;DHT22;15212;48.830;8.730;2023-02-23T02:02:10;7.80;99.90
27848;DHT22;15212;48.830;8.730;2023-02-23T02:04:41;7.80;99.90
27848;DHT22;15212;48.830;8.730;2023-02-23T02:07:15;7.80;99.90
27848;DHT22;15212;48.830;8.730;2023-02-23T02:09:46;7.80;99.90
27848;DHT22;15212;48.830;8.730;2023-02-23T02:12:33;7.80;99.90
27848;DHT22;15212;48.830;8.730;2023-02-23T02:15:04;7.80;99.90
27848;DHT22;15212;48.830;8.730;2023-02-23T02:35:22;7.80;99.90
27848;DHT22;15212;48.830;8.730;2023-02-23T02:41:11;7.80;99.90
27848;DHT22;15212;48.830;8.730;2023-02-23T02:43:56;7.80;99.90
27848;DHT22;15212;48.830;8.730;2023-02-23T02:46:29;7.80;99.90
27848;DHT22;15212;48.830;8.730;2023-02-23T02:51:50;7.80;99.90
27848;DHT22;15212;48.830;8.730;2023-02-23T02:54:32;7.80;99.90
27848;DHT22;15212;48.830;8.730;2023-02-23T02:57:08;7.80;99.90
27848;DHT22;15212;48.830;8.730;2023-02-23T02:59:46;7.80;99.90
27848;DHT22;15212;48.830;8.730;2023-02-23T03:02:39;7.80;99.90
27848;DHT22;15212;48.830;8.730;2023-02-23T03:05:33;7.80;99.90
27848;DHT22;15212;48.830;8.730;2023-02-23T03:08:20;7.80;99.90
27848;DHT22;15212;48.830;8.730;2023-02-23T03:11:13;7.80;99.90
27848;DHT22;15212;48.830;8.730;2023-02-23T03:14:34;7.90;99.90
27848;DHT22;15212;48.830;8.730;2023-02-23T03:17:48;7.80;99.90
27848;DHT22;15212;48.830;8.730;2023-02-23T03:20:49;7.90;99.90
27848;DHT22;15212;48.830;8.730;2023-02-23T03:27:00;7.90;99.90
27848;DHT22;15212;48.830;8.730;2023-02-23T03:30:03;7.90;99.90
27848;DHT22;15212;48.830;8.730;2023-02-23T03:32:52;7.90;99.90
27848;DHT22;15212;48.830;8.730;2023-02-23T03:36:07;7.90;99.90
27848;DHT22;15212;48.830;8.730;2023-02-23T03:42:06;7.90;99.90
27848;DHT22;15212;48.830;8.730;2023-02-23T03:44:55;7.90;99.90
27848;DHT22;15212;48.830;8.730;2023-02-23T03:47:43;7.90;99.90
27848;DHT22;15212;48.830;8.730;2023-02-23T03:50:36;7.90;99.90
27848;DHT22;15212;48.830;8.730;2023-02-23T03:53:32;7.90;99.90
27848;DHT22;15212;48.830;8.730;2023-02-23T03:56:20;7.90;99.90
27848;DHT22;15212;48.830;8.730;2023-02-23T03:59:10;7.80;99.90
27848;DHT22;15212;48.830;8.730;2023-02-23T04:01:58;7.80;99.90
27848;DHT22;15212;48.830;8.730;2023-02-23T04:04:46;7.90;99.90
27848;DHT22;15212;48.830;8.730;2023-02-23T04:07:33;7.80;99.90
27848;DHT22;15212;48.830;8.730;2023-02-23T04:10:20;7.80;99.90
27848;DHT22;15212;48.830;8.730;2023-02-23T04:13:13;7.80;99.90
27848;DHT22;15212;48.830;8.730;2023-02-23T04:15:58;7.80;99.90
27848;DHT22;15212;48.830;8.730;2023-02-23T04:18:29;7.70;99.90
27848;DHT22;15212;48.830;8.730;2023-02-23T04:21:00;7.70;99.90
27848;DHT22;15212;48.830;8.730;2023-02-23T04:23:29;7.70;99.90
27848;DHT22;15212;48.830;8.730;2023-02-23T04:25:58;7.70;99.90
27848;DHT22;15212;48.830;8.730;2023-02-23T04:28:27;7.60;99.90
27848;DHT22;15212;48.830;8.730;2023-02-23T04:30:56;7.60;99.90
27848;DHT22;15212;48.830;8.730;2023-02-23T04:33:25;7.60;99.90
27848;DHT22;15212;48.830;8.730;2023-02-23T04:35:54;7.60;99.90
27848;DHT22;15212;48.830;8.730;2023-02-23T04:38:23;7.60;99.90
27848;DHT22;15212;48.830;8.730;2023-02-23T04:40:51;7.60;99.90
27848;DHT22;15212;48.830;8.730;2023-02-23T04:43:19;7.60;99.90
27848;DHT22;15212;48.830;8.730;2023-02-23T04:45:48;7.60;99.90
27848;DHT22;15212;48.830;8.730;2023-02-23T04:48:16;7.60;99.90
27848;DHT22;15212;48.830;8.730;2023-02-23T04:50:44;7.60;99.90
27848;DHT22;15212;48.830;8.730;2023-02-23T04:53:13;7.50;99.90
27848;DHT22;15212;48.830;8.730;2023-02-23T04:55:41;7.50;99.90
27848;DHT22;15212;48.830;8.730;2023-02-23T04:58:10;7.50;99.90
27848;DHT22;15212;48.830;8.730;2023-02-23T05:00:39;7.50;99.90
27848;DHT22;15212;48.830;8.730;2023-02-23T05:03:08;7.50;99.90
27848;DHT22;15212;48.830;8.730;2023-02-23T05:05:37;7.50;99.90
27848;DHT22;15212;48.830;8.730;2023-02-23T05:08:06;7.50;99.90
27848;DHT22;15212;48.830;8.730;2023-02-23T05:10:34;7.50;99.90
27848;DHT22;15212;48.830;8.730;2023-02-23T05:13:03;7.50;99.90
27848;DHT22;15212;48.830;8.730;2023-02-23T05:15:32;7.50;99.90
27848;DHT22;15212;48.830;8.730;2023-02-23T05:18:00;7.50;99.90
27848;DHT22;15212;48.830;8.730;2023-02-23T05:20:28;7.50;99.90
27848;DHT22;15212;48.830;8.730;2023-02-23T05:22:57;7.50;99.90
27848;DHT22;15212;48.830;8.730;2023-02-23T05:25:25;7.50;99.90
27848;DHT22;15212;48.830;8.730;2023-02-23T05:27:54;7.50;99.90
27848;DHT22;15212;48.830;8.730;2023-02-23T05:30:22;7.50;99.90
27848;DHT22;15212;48.830;8.730;2023-02-23T05:32:50;7.50;99.90
27848;DHT22;15212;48.830;8.730;2023-02-23T05:35:19;7.40;99.90
27848;DHT22;15212;48.830;8.730;2023-02-23T05:37:47;7.50;99.90
27848;DHT22;15212;48.830;8.730;2023-02-23T05:40:15;7.40;99.90
27848;DHT22;15212;48.830;8.730;2023-02-23T05:42:44;7.40;99.90
27848;DHT22;15212;48.830;8.730;2023-02-23T05:45:12;7.40;99.90
27848;DHT22;15212;48.830;8.730;2023-02-23T05:47:41;7.40;99.90
27848;DHT22;15212;48.830;8.730;2023-02-23T05:50:10;7.40;99.90
27848;DHT22;15212;48.830;8.730;2023-02-23T05:52:40;7.40;99.90
27848;DHT22;15212;48.830;8.730;2023-02-23T05:55:10;7.40;99.90
27848;DHT22;15212;48.830;8.730;2023-02-23T05:57:39;7.40;99.90
27848;DHT22;15212;48.830;8.730;2023-02-23T06:00:08;7.40;99.90
27848;DHT22;15212;48.830;8.730;2023-02-23T06:02:42;7.40;99.90
27848;DHT22;15212;48.830;8.730;2023-02-23T06:05:11;7.50;99.90
27848;DHT22;15212;48.830;8.730;2023-02-23T06:07:41;7.50;99.90
27848;DHT22;15212;48.830;8.730;2023-02-23T06:10:10;7.50;99.90
27848;DHT22;15212;48.830;8.730;2023-02-23T06:12:38;7.50;99.90
27848;DHT22;15212;48.830;8.730;2023-02-23T06:15:07;7.50;99.90
27848;DHT22;15212;48.830;8.730;2023-02-23T06:17:35;7.50;99.90
27848;DHT22;15212;48.830;8.730;2023-02-23T06:20:04;7.50;99.90
27848;DHT22;15212;48.830;8.730;2023-02-23T06:22:33;7.40;99.90
27848;DHT22;15212;48.830;8.730;2023-02-23T06:25:01;7.50;99.90
27848;DHT22;15212;48.830;8.730;2023-02-23T06:27:30;7.40;99.90
27848;DHT22;15212;48.830;8.730;2023-02-23T06:29:58;7.40;99.90
27848;DHT22;15212;48.830;8.730;2023-02-23T06:32:27;7.40;99.90
27848;DHT22;15212;48.830;8.730;2023-02-23T06:34:55;7.30;99.90
27848;DHT22;15212;48.830;8.730;2023-02-23T06:37:24;7.30;99.90
27848;DHT22;15212;48.830;8.730;2023-02-23T06:39:52;7.30;99.90
27848;DHT22;15212;48.830;8.730;2023-02-23T06:42:20;7.30;99.90
27848;DHT22;15212;48.830;8.730;2023-02-23T06:44:49;7.30;99.90
27848;DHT22;15212;48.830;8.730;2023-02-23T06:47:17;7.20;99.90
27848;DHT22;15212;48.830;8.730;2023-02-23T06:49:46;7.20;99.90
27848;DHT22;15212;48.830;8.730;2023-02-23T06:52:14;7.20;99.90
27848;DHT22;15212;48.830;8.730;2023-02-23T06:54:42;7.20;99.90
27848;DHT22;15212;48.830;8.730;2023-02-23T06:57:11;7.20;99.90
27848;DHT22;15212;48.830;8.730;2023-02-23T06:59:39;7.20;99.90
27848;DHT22;15212;48.830;8.730;2023-02-23T07:02:10;7.20;99.90
27848;DHT22;15212;48.830;8.730;2023-02-23T07:04:39;7.20;99.90
27848;DHT22;15212;48.830;8.730;2023-02-23T07:07:09;7.30;99.90
27848;DHT22;15212;48.830;8.730;2023-02-23T07:09:41;7.30;99.90
27848;DHT22;15212;48.830;8.730;2023-02-23T07:12:10;7.20;99.90
27848;DHT22;15212;48.830;8.730;2023-02-23T07:14:38;7.30;99.90
27848;DHT22;15212;48.830;8.730;2023-02-23T07:17:07;7.20;99.90
27848;DHT22;15212;48.830;8.730;2023-02-23T07:19:35;7.30;99.90
27848;DHT22;15212;48.830;8.730;2023-02-23T07:22:04;7.30;99.90
27848;DHT22;15212;48.830;8.730;2023-02-23T07:24:32;7.40;99.90
27848;DHT22;15212;48.830;8.730;2023-02-23T07:27:00;7.40;99.90
27848;DHT22;15212;48.830;8.730;2023-02-23T07:29:29;7.50;99.90
27848;DHT22;15212;48.830;8.730;2023-02-23T07:31:57;7.60;99.90
27848;DHT22;15212;48.830;8.730;2023-02-23T07:34:26;7.60;99.90
27848;DHT22;15212;48.830;8.730;2023-02-23T07:36:54;7.70;99.90
27848;DHT22;15212;48.830;8.730;2023-02-23T07:39:22;7.70;99.90
27848;DHT22;15212;48.830;8.730;2023-02-23T07:41:51;7.80;99.90
27848;DHT22;15212;48.830;8.730;2023-02-23T07:44:19;7.90;99.90
27848;DHT22;15212;48.830;8.730;2023-02-23T07:46:47;7.90;99.90
27848;DHT22;15212;48.830;8.730;2023-02-23T07:49:18;8.00;99.90
27848;DHT22;15212;48.830;8.730;2023-02-23T07:51:46;8.00;99.90
27848;DHT22;15212;48.830;8.730;2023-02-23T07:54:15;8.10;99.90
27848;DHT22;15212;48.830;8.730;2023-02-23T07:56:43;8.10;99.90
27848;DHT22;15212;48.830;8.730;2023-02-23T07:59:11;8.10;99.90
27848;DHT22;15212;48.830;8.730;2023-02-23T08:01:40;8.20;99.90
27848;DHT22;15212;48.830;8.730;2023-02-23T08:04:08;8.20;99.90
27848;DHT22;15212;48.830;8.730;2023-02-23T08:06:36;8.20;99.90
27848;DHT22;15212;48.830;8.730;2023-02-23T08:09:05;8.20;99.90
27848;DHT22;15212;48.830;8.730;2023-02-23T08:11:33;8.30;99.90
27848;DHT22;15212;48.830;8.730;2023-02-23T08:14:02;8.20;99.90
27848;DHT22;15212;48.830;8.730;2023-02-23T08:16:31;8.30;99.90
27848;DHT22;15212;48.830;8.730;2023-02-23T08:19:00;8.40;99.90
27848;DHT22;15212;48.830;8.730;2023-02-23T08:21:29;8.40;99.90
27848;DHT22;15212;48.830;8.730;2023-02-23T08:23:58;8.60;99.90
27848;DHT22;15212;48.830;8.730;2023-02-23T08:26:26;8.70;99.90
27848;DHT22;15212;48.830;8.730;2023-02-23T08:28:55;8.80;99.90
27848;DHT22;15212;48.830;8.730;2023-02-23T08:31:23;8.90;99.90
27848;DHT22;15212;48.830;8.730;2023-02-23T08:33:53;9.00;99.90
27848;DHT22;15212;48.830;8.730;2023-02-23T08:36:21;9.10;99.90
27848;DHT22;15212;48.830;8.730;2023-02-23T08:38:49;9.10;99.90
27848;DHT22;15212;48.830;8.730;2023-02-23T08:41:20;9.20;99.90
27848;DHT22;15212;48.830;8.730;2023-02-23T08:43:48;9.40;99.90
27848;DHT22;15212;48.830;8.730;2023-02-23T08:46:17;9.50;99.90
27848;DHT22;15212;48.830;8.730;2023-02-23T08:48:46;9.60;99.90
27848;DHT22;15212;48.830;8.730;2023-02-23T08:51:14;9.80;99.90
27848;DHT22;15212;48.830;8.730;2023-02-23T08:53:43;10.00;99.90
27848;DHT22;15212;48.830;8.730;2023-02-23T08:56:11;10.30;99.90
27848;DHT22;15212;48.830;8.730;2023-02-23T08:58:41;10.50;99.90
27848;DHT22;15212;48.830;8.730;2023-02-23T09:01:17;10.70;99.90
27848;DHT22;15212;48.830;8.730;2023-02-23T09:03:47;10.80;99.90
27848;DHT22;15212;48.830;8.730;2023-02-23T09:06:19;11.00;99.90
27848;DHT22;15212;48.830;8.730;2023-02-23T09:08:48;11.10;99.90
27848;DHT22;15212;48.830;8.730;2023-02-23T09:11:17;11.20;99.90
27848;DHT22;15212;48.830;8.730;2023-02-23T09:13:45;11.20;99.90
27848;DHT22;15212;48.830;8.730;2023-02-23T09:16:14;11.20;99.90
27848;DHT22;15212;48.830;8.730;2023-02-23T09:18:43;11.20;99.90
27848;DHT22;15212;48.830;8.730;2023-02-23T09:21:14;11.30;99.90
27848;DHT22;15212;48.830;8.730;2023-02-23T09:23:45;11.30;99.90
27848;DHT22;15212;48.830;8.730;2023-02-23T09:26:16;11.30;99.90
27848;DHT22;15212;48.830;8.730;2023-02-23T09:28:45;11.30;99.90
27848;DHT22;15212;48.830;8.730;2023-02-23T09:31:17;11.30;99.90
27848;DHT22;15212;48.830;8.730;2023-02-23T09:33:47;11.30;99.90
27848;DHT22;15212;48.830;8.730;2023-02-23T09:36:20;11.30;99.90
27848;DHT22;15212;48.830;8.730;2023-02-23T09:38:52;11.30;99.90
27848;DHT22;15212;48.830;8.730;2023-02-23T09:41:39;11.30;99.90
27848;DHT22;15212;48.830;8.730;2023-02-23T09:44:20;11.40;99.90
27848;DHT22;15212;48.830;8.730;2023-02-23T09:49:49;11.40;99.90
27848;DHT22;15212;48.830;8.730;2023-02-23T09:52:21;11.40;99.90
27848;DHT22;15212;48.830;8.730;2023-02-23T09:54:51;11.40;99.90
27848;DHT22;15212;48.830;8.730;2023-02-23T09:57:22;11.50;99.90
27848;DHT22;15212;48.830;8.730;2023-02-23T09:59:53;11.70;99.90
27848;DHT22;15212;48.830;8.730;2023-02-23T10:02:37;11.80;99.90
27848;DHT22;15212;48.830;8.730;2023-02-23T10:05:18;11.80;99.90
27848;DHT22;15212;48.830;8.730;2023-02-23T10:07:50;11.90;99.90
27848;DHT22;15212;48.830;8.730;2023-02-23T10:10:25;12.00;99.90
27848;DHT22;15212;48.830;8.730;2023-02-23T10:16:15;12.10;99.90
27848;DHT22;15212;48.830;8.730;2023-02-23T10:19:01;12.10;99.90
27848;DHT22;15212;48.830;8.730;2023-02-23T10:21:38;12.00;99.90
27848;DHT22;15212;48.830;8.730;2023-02-23T10:24:17;11.90;99.90
27848;DHT22;15212;48.830;8.730;2023-02-23T10:26:58;12.00;99.90
27848;DHT22;15212;48.830;8.730;2023-02-23T10:29:33;11.90;99.90
27848;DHT22;15212;48.830;8.730;2023-02-23T10:32:05;11.80;99.90
27848;DHT22;15212;48.830;8.730;2023-02-23T10:34:54;11.80;99.90
27848;DHT22;15212;48.830;8.730;2023-02-23T10:37:23;11.70;99.90
27848;DHT22;15212;48.830;8.730;2023-02-23T10:39:52;11.70;99.90
27848;DHT22;15212;48.830;8.730;2023-02-23T10:42:26;11.70;99.90
27848;DHT22;15212;48.830;8.730;2023-02-23T10:44:55;11.70;99.90
27848;DHT22;15212;48.830;8.730;2023-02-23T10:47:34;11.60;99.90
27848;DHT22;15212;48.830;8.730;2023-02-23T10:50:00;11.60;99.90
27848;DHT22;15212;48.830;8.730;2023-02-23T10:52:49;11.50;99.90
27848;DHT22;15212;48.830;8.730;2023-02-23T10:55:25;11.40;99.90
27848;DHT22;15212;48.830;8.730;2023-02-23T10:58:09;11.30;99.90
27848;DHT22;15212;48.830;8.730;2023-02-23T11:00:58;11.20;99.90
27848;DHT22;15212;48.830;8.730;2023-02-23T11:03:43;11.20;99.90
27848;DHT22;15212;48.830;8.730;2023-02-23T11:06:32;11.20;99.90
27848;DHT22;15212;48.830;8.730;2023-02-23T11:09:21;11.10;99.90
27848;DHT22;15212;48.830;8.730;2023-02-23T11:12:01;11.10;99.90
27848;DHT22;15212;48.830;8.730;2023-02-23T11:14:32;11.10;99.90
27848;DHT22;15212;48.830;8.730;2023-02-23T11:17:00;11.10;99.90
27848;DHT22;15212;48.830;8.730;2023-02-23T11:19:36;11.10;99.90
27848;DHT22;15212;48.830;8.730;2023-02-23T11:22:05;11.10;99.90
27848;DHT22;15212;48.830;8.730;2023-02-23T11:24:38;11.10;99.90
27848;DHT22;15212;48.830;8.730;2023-02-23T11:27:19;11.10;99.90
27848;DHT22;15212;48.830;8.730;2023-02-23T11:29:43;11.00;99.90
27848;DHT22;15212;48.830;8.730;2023-02-23T11:32:20;10.90;99.90
27848;DHT22;15212;48.830;8.730;2023-02-23T11:37:52;10.90;99.90
27848;DHT22;15212;48.830;8.730;2023-02-23T11:40:27;10.80;99.90
27848;DHT22;15212;48.830;8.730;2023-02-23T11:42:59;10.80;99.90
27848;DHT22;15212;48.830;8.730;2023-02-23T11:45:29;10.80;99.90
27848;DHT22;15212;48.830;8.730;2023-02-23T11:48:01;10.90;99.90
27848;DHT22;15212;48.830;8.730;2023-02-23T11:50:33;11.00;99.90
27848;DHT22;15212;48.830;8.730;2023-02-23T11:53:16;11.00;99.90
27848;DHT22;15212;48.830;8.730;2023-02-23T11:55:51;11.10;99.90
27848;DHT22;15212;48.830;8.730;2023-02-23T11:58:32;11.20;99.90
27848;DHT22;15212;48.830;8.730;2023-02-23T12:01:04;11.30;99.90
27848;DHT22;15212;48.830;8.730;2023-02-23T12:03:37;11.40;99.90
27848;DHT22;15212;48.830;8.730;2023-02-23T12:06:09;11.40;99.90
27848;DHT22;15212;48.830;8.730;2023-02-23T12:08:49;11.50;99.90
27848;DHT22;15212;48.830;8.730;2023-02-23T12:11:25;11.60;99.90
27848;DHT22;15212;48.830;8.730;2023-02-23T12:14:06;11.60;99.90
27848;DHT22;15212;48.830;8.730;2023-02-23T12:16:45;11.60;99.90
27848;DHT22;15212;48.830;8.730;2023-02-23T12:19:25;11.50;99.90
27848;DHT22;15212;48.830;8.730;2023-02-23T12:22:09;11.50;99.90
27848;DHT22;15212;48.830;8.730;2023-02-23T12:24:43;11.60;99.90
27848;DHT22;15212;48.830;8.730;2023-02-23T12:27:16;11.60;99.90
27848;DHT22;15212;48.830;8.730;2023-02-23T12:30:16;11.60;99.90
27848;DHT22;15212;48.830;8.730;2023-02-23T12:33:01;11.50;99.90
27848;DHT22;15212;48.830;8.730;2023-02-23T12:35:57;11.50;99.90
27848;DHT22;15212;48.830;8.730;2023-02-23T12:38:25;11.40;99.90
27848;DHT22;15212;48.830;8.730;2023-02-23T12:41:15;11.40;99.90
27848;DHT22;15212;48.830;8.730;2023-02-23T12:43:47;11.30;99.90
27848;DHT22;15212;48.830;8.730;2023-02-23T12:46:40;11.30;99.90
27848;DHT22;15212;48.830;8.730;2023-02-23T12:49:18;11.20;99.90
27848;DHT22;15212;48.830;8.730;2023-02-23T12:52:06;11.20;99.90
27848;DHT22;15212;48.830;8.730;2023-02-23T12:54:34;11.10;99.90
27848;DHT22;15212;48.830;8.730;2023-02-23T12:57:10;11.00;99.90
27848;DHT22;15212;48.830;8.730;2023-02-23T12:59:58;11.00;99.90
27848;DHT22;15212;48.830;8.730;2023-02-23T13:06:27;10.90;99.90
27848;DHT22;15212;48.830;8.730;2023-02-23T13:09:10;10.80;99.90
27848;DHT22;15212;48.830;8.730;2023-02-23T13:12:04;10.80;99.90
27848;DHT22;15212;48.830;8.730;2023-02-23T13:15:07;10.80;99.90
27848;DHT22;15212;48.830;8.730;2023-02-23T13:18:02;10.70;99.90
27848;DHT22;15212;48.830;8.730;2023-02-23T13:20:49;10.70;99.90
27848;DHT22;15212;48.830;8.730;2023-02-23T13:23:53;10.60;99.90
27848;DHT22;15212;48.830;8.730;2023-02-23T13:26:52;10.60;99.90
27848;DHT22;15212;48.830;8.730;2023-02-23T13:32:13;10.50;99.90
27848;DHT22;15212;48.830;8.730;2023-02-23T13:34:56;10.40;99.90
27848;DHT22;15212;48.830;8.730;2023-02-23T13:40:30;10.30;99.90
27848;DHT22;15212;48.830;8.730;2023-02-23T13:43:22;10.20;99.90
27848;DHT22;15212;48.830;8.730;2023-02-23T13:46:23;10.20;99.90
27848;DHT22;15212;48.830;8.730;2023-02-23T13:49:14;10.20;99.90
27848;DHT22;15212;48.830;8.730;2023-02-23T13:51:59;10.10;99.90
27848;DHT22;15212;48.830;8.730;2023-02-23T13:54:34;10.10;99.90
27848;DHT22;15212;48.830;8.730;2023-02-23T13:57:12;10.10;99.90
27848;DHT22;15212;48.830;8.730;2023-02-23T13:59:44;10.10;99.90
27848;DHT22;15212;48.830;8.730;2023-02-23T14:02:33;10.10;99.90
27848;DHT22;15212;48.830;8.730;2023-02-23T14:05:17;10.10;99.90
27848;DHT22;15212;48.830;8.730;2023-02-23T14:07:53;10.10;99.90
27848;DHT22;15212;48.830;8.730;2023-02-23T14:10:39;10.20;99.90
27848;DHT22;15212;48.830;8.730;2023-02-23T14:15:49;10.20;99.90
27848;DHT22;15212;48.830;8.730;2023-02-23T14:22:03;10.10;99.90
27848;DHT22;15212;48.830;8.730;2023-02-23T14:24:29;10.10;99.90
27848;DHT22;15212;48.830;8.730;2023-02-23T14:27:18;10.10;99.90
27848;DHT22;15212;48.830;8.730;2023-02-23T14:32:48;10.00;99.90
27848;DHT22;15212;48.830;8.730;2023-02-23T14:38:09;9.90;99.90
27848;DHT22;15212;48.830;8.730;2023-02-23T14:40:41;10.00;99.90
27848;DHT22;15212;48.830;8.730;2023-02-23T14:46:17;10.00;99.90
27848;DHT22;15212;48.830;8.730;2023-02-23T14:49:14;10.10;99.90
27848;DHT22;15212;48.830;8.730;2023-02-23T14:51:49;10.10;99.90
27848;DHT22;15212;48.830;8.730;2023-02-23T14:54:35;10.10;99.90
27848;DHT22;15212;48.830;8.730;2023-02-23T14:57:20;10.10;99.90
27848;DHT22;15212;48.830;8.730;2023-02-23T15:00:07;10.10;99.90
27848;DHT22;15212;48.830;8.730;2023-02-23T15:02:30;10.10;99.90
27848;DHT22;15212;48.830;8.730;2023-02-23T15:04:59;10.10;99.90
27848;DHT22;15212;48.830;8.730;2023-02-23T15:07:35;10.10;99.90
27848;DHT22;15212;48.830;8.730;2023-02-23T15:10:11;10.10;99.90
27848;DHT22;15212;48.830;8.730;2023-02-23T15:12:37;10.10;99.90
27848;DHT22;15212;48.830;8.730;2023-02-23T15:15:11;10.10;99.90
27848;DHT22;15212;48.830;8.730;2023-02-23T15:17:44;10.10;99.90
27848;DHT22;15212;48.830;8.730;2023-02-23T15:20:19;10.00;99.90
27848;DHT22;15212;48.830;8.730;2023-02-23T15:22:52;10.00;99.90
27848;DHT22;15212;48.830;8.730;2023-02-23T15:25:25;10.10;99.90
27848;DHT22;15212;48.830;8.730;2023-02-23T15:28:18;10.10;99.90
27848;DHT22;15212;48.830;8.730;2023-02-23T15:30:46;10.00;99.90
27848;DHT22;15212;48.830;8.730;2023-02-23T15:33:17;10.00;99.90
27848;DHT22;15212;48.830;8.730;2023-02-23T15:36:06;10.00;99.90
27848;DHT22;15212;48.830;8.730;2023-02-23T15:38:40;10.00;99.90
27848;DHT22;15212;48.830;8.730;2023-02-23T15:41:33;9.90;99.90
27848;DHT22;15212;48.830;8.730;2023-02-23T15:44:21;10.00;99.90
27848;DHT22;15212;48.830;8.730;2023-02-23T15:47:02;10.00;99.90
27848;DHT22;15212;48.830;8.730;2023-02-23T15:49:31;10.00;99.90
27848;DHT22;15212;48.830;8.730;2023-02-23T15:52:07;10.00;99.90
27848;DHT22;15212;48.830;8.730;2023-02-23T15:54:44;9.90;99.90
27848;DHT22;15212;48.830;8.730;2023-02-23T15:57:25;9.90;99.90
27848;DHT22;15212;48.830;8.730;2023-02-23T15:59:57;9.90;99.90
27848;DHT22;15212;48.830;8.730;2023-02-23T16:02:29;9.90;99.90
27848;DHT22;15212;48.830;8.730;2023-02-23T16:05:04;9.90;99.90
27848;DHT22;15212;48.830;8.730;2023-02-23T16:07:35;10.00;99.90
27848;DHT22;15212;48.830;8.730;2023-02-23T16:10:17;10.00;99.90
27848;DHT22;15212;48.830;8.730;2023-02-23T16:12:50;10.00;99.90
27848;DHT22;15212;48.830;8.730;2023-02-23T16:15:27;9.90;99.90
27848;DHT22;15212;48.830;8.730;2023-02-23T16:18:02;9.90;99.90
27848;DHT22;15212;48.830;8.730;2023-02-23T16:20:41;9.90;99.90
27848;DHT22;15212;48.830;8.730;2023-02-23T16:26:15;9.80;99.90
27848;DHT22;15212;48.830;8.730;2023-02-23T16:28:45;9.80;99.90
27848;DHT22;15212;48.830;8.730;2023-02-23T16:31:20;9.80;99.90
27848;DHT22;15212;48.830;8.730;2023-02-23T16:33:55;9.80;99.90
27848;DHT22;15212;48.830;8.730;2023-02-23T16:36:36;9.80;99.90
27848;DHT22;15212;48.830;8.730;2023-02-23T16:39:12;9.70;99.90
27848;DHT22;15212;48.830;8.730;2023-02-23T16:41:42;9.70;99.90
27848;DHT22;15212;48.830;8.730;2023-02-23T16:44:16;9.70;99.90
27848;DHT22;15212;48.830;8.730;2023-02-23T16:47:09;9.60;99.90
27848;DHT22;15212;48.830;8.730;2023-02-23T16:49:32;9.70;99.90
27848;DHT22;15212;48.830;8.730;2023-02-23T16:52:05;9.60;99.90
27848;DHT22;15212;48.830;8.730;2023-02-23T16:54:45;9.60;99.90
27848;DHT22;15212;48.830;8.730;2023-02-23T16:57:21;9.60;99.90
27848;DHT22;15212;48.830;8.730;2023-02-23T16:59:51;9.60;99.90
27848;DHT22;15212;48.830;8.730;2023-02-23T17:02:21;9.50;99.90
27848;DHT22;15212;48.830;8.730;2023-02-23T17:04:50;9.50;99.90
27848;DHT22;15212;48.830;8.730;2023-02-23T17:07:20;9.50;99.90
27848;DHT22;15212;48.830;8.730;2023-02-23T17:09:49;9.50;99.90
27848;DHT22;15212;48.830;8.730;2023-02-23T17:12:17;9.50;99.90
27848;DHT22;15212;48.830;8.730;2023-02-23T17:14:48;9.50;99.90
27848;DHT22;15212;48.830;8.730;2023-02-23T17:17:17;9.40;99.90
27848;DHT22;15212;48.830;8.730;2023-02-23T17:19:47;9.50;99.90
27848;DHT22;15212;48.830;8.730;2023-02-23T17:22:15;9.40;99.90
27848;DHT22;15212;48.830;8.730;2023-02-23T17:24:44;9.40;99.90
27848;DHT22;15212;48.830;8.730;2023-02-23T17:27:12;9.30;99.90
27848;DHT22;15212;48.830;8.730;2023-02-23T17:29:41;9.30;99.90
27848;DHT22;15212;48.830;8.730;2023-02-23T17:32:10;9.30;99.90
27848;DHT22;15212;48.830;8.730;2023-02-23T17:34:38;9.30;99.90
27848;DHT22;15212;48.830;8.730;2023-02-23T17:37:07;9.30;99.90